Weather History for KETB - November, 2013

Change the Weather History Date:

Saturday, November 9, 2013

  Actual Average Record
Temperature  
Mean Temperature 44 °F -  
Max Temperature 51 °F 45 °F 75 °F (1999)
Min Temperature 37 °F 32 °F 14 °F (1925)
Degree Days  
Heating Degree Days 21    
Moisture  
Dew Point 32 °F    
Average Humidity 60    
Maximum Humidity 71    
Minimum Humidity 49    
Precipitation  
Precipitation 0.00 in - - ()
Sea Level Pressure  
Sea Level Pressure 29.82 in    
Wind  
Wind Speed 14 mph (WSW)    
Max Wind Speed 31 mph    
Max Gust Speed 41 mph    
Visibility 10 miles    
Events Rain    
Averages and records for this station are not official NWS values.
T = Trace of Precipitation, MM = Missing Value Source: NWS Daily Summary

Daily Weather History Graph

Daily Weather History Graph

Search for Another Location

Airport or City:

Trip Planner

Search our weather history database for the weather conditions in past years. The results will help you decide how hot, cold, wet, or windy it might be!

Date:

Astronomy

Nov. 09, 2013 Rise Set
Actual Time 6:38 AM CST 4:33 PM CST
Civil Twilight 6:08 AM CST 5:04 PM CST
Nautical Twilight 5:33 AM CST 5:38 PM CST
Astronomical Twilight 5:00 AM CST 6:11 PM CST
Moon 12:13 PM CST (11/9) 11:06 PM CST (11/9)
Length of Visible Light 10h 55m
Length of Day
9h 55m
Waxing Crescent, 44% of the Moon is Illuminated
Nov 9
Waxing Crescent
Nov 9
First Quarter
Nov 17
Full
Nov 25
Last Quarter
Dec 2
New

Hourly Weather History & Observations

Time (CST) Temp. Windchill Dew Point Humidity Pressure Visibility Wind Dir Wind Speed Gust Speed Precip Events Conditions
12:15 AM 42.8 °F 36.6 °F 30.2 °F 61% 29.82 in 10.0 mi South 11.5 mph - N/A   Drizzle
12:35 AM 44.6 °F 38.4 °F 30.2 °F 57% 29.81 in 10.0 mi South 12.7 mph 18.4 mph N/A   Drizzle
12:55 AM 42.8 °F 36.6 °F 32.0 °F 66% 29.79 in 10.0 mi South 11.5 mph 19.6 mph N/A Rain Light Rain
1:15 AM 44.6 °F 38.8 °F 32.0 °F 61% 29.78 in 10.0 mi South 11.5 mph 19.6 mph N/A   Overcast
1:35 AM 44.6 °F 37.8 °F 32.0 °F 61% 29.77 in 10.0 mi South 15.0 mph 19.6 mph N/A   Overcast
1:55 AM 46.4 °F 39.8 °F 32.0 °F 57% 29.77 in 10.0 mi SSW 16.1 mph 24.2 mph N/A   Overcast
2:15 AM 46.4 °F 40.4 °F 32.0 °F 57% 29.75 in 10.0 mi SSW 13.8 mph 25.3 mph N/A   Overcast
2:35 AM 44.6 °F 38.1 °F 32.0 °F 61% 29.75 in 10.0 mi SSW 13.8 mph 21.9 mph N/A   Scattered Clouds
2:55 AM 44.6 °F 37.2 °F 32.0 °F 61% 29.73 in 10.0 mi SSW 17.3 mph 24.2 mph N/A   Clear
3:15 AM 44.6 °F 37.8 °F 32.0 °F 61% 29.73 in 10.0 mi SW 15.0 mph 20.7 mph N/A   Clear
3:35 AM 44.6 °F 38.4 °F 32.0 °F 61% 29.73 in 10.0 mi SW 12.7 mph 25.3 mph N/A   Clear
3:55 AM 44.6 °F 38.8 °F 32.0 °F 61% 29.73 in 10.0 mi SW 11.5 mph 17.3 mph N/A   Scattered Clouds
4:15 AM 44.6 °F 38.8 °F 32.0 °F 61% 29.73 in 10.0 mi SW 11.5 mph 16.1 mph N/A   Mostly Cloudy
4:35 AM 46.4 °F 40.7 °F 32.0 °F 57% 29.73 in 10.0 mi SW 12.7 mph 19.6 mph N/A   Overcast
4:55 AM 44.6 °F 38.8 °F 32.0 °F 61% 29.73 in 10.0 mi SW 11.5 mph 18.4 mph N/A   Scattered Clouds
5:15 AM 44.6 °F 39.2 °F 32.0 °F 61% 29.73 in 10.0 mi SW 10.4 mph 18.4 mph N/A   Clear
5:35 AM 44.6 °F 39.7 °F 32.0 °F 61% 29.73 in 10.0 mi SW 9.2 mph 18.4 mph N/A   Scattered Clouds
5:55 AM 44.6 °F 39.2 °F 33.8 °F 66% 29.73 in 10.0 mi SW 10.4 mph 17.3 mph N/A   Scattered Clouds
6:15 AM 44.6 °F 39.7 °F 33.8 °F 66% 29.73 in 10.0 mi SW 9.2 mph - N/A   Clear
6:35 AM 42.8 °F 37.0 °F 33.8 °F 70% 29.75 in 10.0 mi SW 10.4 mph 16.1 mph N/A   Scattered Clouds
6:55 AM 42.8 °F 37.0 °F 33.8 °F 70% 29.75 in 10.0 mi SW 10.4 mph - N/A   Scattered Clouds
7:15 AM 44.6 °F 38.4 °F 33.8 °F 66% 29.75 in 10.0 mi WSW 12.7 mph 20.7 mph N/A   Clear
7:35 AM 44.6 °F 39.7 °F 33.8 °F 66% 29.75 in 10.0 mi WSW 9.2 mph 17.3 mph N/A   Scattered Clouds
7:55 AM 44.6 °F 38.4 °F 35.6 °F 71% 29.75 in 10.0 mi WSW 12.7 mph 19.6 mph N/A   Overcast
8:15 AM 44.6 °F 38.1 °F 35.6 °F 71% 29.75 in 10.0 mi WSW 13.8 mph 19.6 mph N/A   Overcast
8:35 AM 44.6 °F 39.7 °F 35.6 °F 71% 29.75 in 10.0 mi WSW 9.2 mph 18.4 mph N/A   Overcast
8:55 AM 44.6 °F 37.8 °F 35.6 °F 71% 29.75 in 10.0 mi WSW 15.0 mph 20.7 mph N/A   Overcast
9:15 AM 46.4 °F 39.8 °F 35.6 °F 66% 29.75 in 10.0 mi WSW 16.1 mph 21.9 mph N/A   Overcast
9:55 AM 46.4 °F 38.7 °F 33.8 °F 62% 29.77 in 10.0 mi West 20.7 mph 26.5 mph N/A   Overcast
10:15 AM 46.4 °F 39.2 °F 33.8 °F 62% 29.78 in 10.0 mi West 18.4 mph 26.5 mph N/A   Overcast
10:35 AM 46.4 °F 40.7 °F 35.6 °F 66% 29.78 in 10.0 mi West 12.7 mph 21.9 mph N/A   Overcast
10:55 AM 46.4 °F 39.0 °F 33.8 °F 62% 29.78 in 10.0 mi West 19.6 mph 26.5 mph N/A   Overcast
11:15 AM 46.4 °F 38.1 °F 33.8 °F 62% 29.78 in 10.0 mi West 24.2 mph 31.1 mph N/A   Overcast
11:35 AM 50.0 °F - 33.8 °F 54% 29.77 in 10.0 mi WSW 19.6 mph 28.8 mph N/A   Mostly Cloudy
11:55 AM 50.0 °F - 33.8 °F 54% 29.78 in 10.0 mi West 18.4 mph 28.8 mph N/A   Overcast
12:15 PM 50.0 °F - 33.8 °F 54% 29.78 in 10.0 mi West 20.7 mph 31.1 mph N/A   Overcast
12:35 PM 50.0 °F - 33.8 °F 54% 29.78 in 10.0 mi West 19.6 mph 23.0 mph N/A   Overcast
12:55 PM 50.0 °F - 33.8 °F 54% 29.78 in 10.0 mi West 21.9 mph 28.8 mph N/A   Overcast
1:15 PM 51.8 °F - 33.8 °F 50% 29.78 in 10.0 mi West 17.3 mph 24.2 mph N/A   Mostly Cloudy
1:35 PM 50.0 °F - 33.8 °F 54% 29.80 in 10.0 mi West 19.6 mph 31.1 mph N/A   Overcast
1:55 PM 50.0 °F - 33.8 °F 54% 29.80 in 10.0 mi West 20.7 mph 29.9 mph N/A   Overcast
2:15 PM 48.2 °F - 33.8 °F 58% 29.82 in 10.0 mi West 20.7 mph 33.4 mph N/A   Overcast
2:35 PM 48.2 °F - 33.8 °F 58% 29.83 in 10.0 mi West 18.4 mph 36.8 mph N/A   Overcast
2:55 PM 46.4 °F 38.5 °F 33.8 °F 62% 29.83 in 10.0 mi West 21.9 mph 28.8 mph N/A   Overcast
3:15 PM 46.4 °F 39.0 °F 33.8 °F 62% 29.84 in 10.0 mi West 19.6 mph 26.5 mph N/A   Overcast
3:35 PM 46.4 °F 40.1 °F 33.8 °F 62% 29.84 in 10.0 mi West 15.0 mph 25.3 mph N/A   Overcast
3:55 PM 46.4 °F 39.8 °F 33.8 °F 62% 29.85 in 10.0 mi West 16.1 mph 24.2 mph N/A   Overcast
4:15 PM 46.4 °F 39.0 °F 32.0 °F 57% 29.86 in 10.0 mi West 19.6 mph 24.2 mph N/A   Mostly Cloudy
4:35 PM 46.4 °F 40.1 °F 32.0 °F 57% 29.87 in 10.0 mi West 15.0 mph 23.0 mph N/A   Mostly Cloudy
4:55 PM 44.6 °F 38.8 °F 32.0 °F 61% 29.88 in 10.0 mi West 11.5 mph 19.6 mph N/A   Overcast
5:15 PM 46.4 °F 41.1 °F 32.0 °F 57% 29.89 in 10.0 mi WNW 11.5 mph 21.9 mph N/A   Overcast
5:35 PM 44.6 °F 38.1 °F 32.0 °F 61% 29.90 in 10.0 mi West 13.8 mph 23.0 mph N/A   Mostly Cloudy
5:55 PM 44.6 °F 36.6 °F 32.0 °F 61% 29.91 in 10.0 mi West 19.6 mph 26.5 mph N/A   Mostly Cloudy
6:15 PM 44.6 °F 37.4 °F 32.0 °F 61% 29.92 in 10.0 mi West 16.1 mph 21.9 mph N/A   Mostly Cloudy
6:35 PM 44.6 °F 37.2 °F 30.2 °F 57% 29.92 in 10.0 mi West 17.3 mph 29.9 mph N/A   Scattered Clouds
6:55 PM 42.8 °F 34.8 °F 30.2 °F 61% 29.93 in 10.0 mi West 17.3 mph - N/A   Scattered Clouds
7:15 PM 42.8 °F 34.5 °F 28.4 °F 57% 29.94 in 10.0 mi West 18.4 mph 31.1 mph N/A   Mostly Cloudy
7:35 PM 42.8 °F 32.1 °F 26.6 °F 53% 29.95 in 10.0 mi West 31.1 mph 41.4 mph N/A   Overcast
8:35 PM 41.0 °F 32.2 °F 23.0 °F 49% 29.96 in 10.0 mi WNW 18.4 mph 26.5 mph N/A   Overcast
8:55 PM 41.0 °F 34.7 °F 24.8 °F 53% 29.97 in 10.0 mi WNW 10.4 mph 21.9 mph N/A   Overcast
9:15 PM 41.0 °F 35.8 °F 26.6 °F 57% 29.97 in 10.0 mi WNW 8.1 mph - N/A   Overcast
9:35 PM 41.0 °F 33.9 °F 26.6 °F 57% 29.98 in 10.0 mi WNW 12.7 mph 18.4 mph N/A   Overcast
9:55 PM 41.0 °F 31.9 °F 26.6 °F 57% 29.99 in 10.0 mi West 19.6 mph 31.1 mph N/A   Overcast
10:15 PM 39.2 °F 30.2 °F 23.0 °F 52% 30.00 in 10.0 mi West 17.3 mph 24.2 mph N/A   Overcast
11:15 PM 39.2 °F 31.2 °F 23.0 °F 52% 30.01 in 10.0 mi West 13.8 mph 27.6 mph N/A   Overcast
11:35 PM 37.4 °F 28.5 °F 23.0 °F 56% 30.02 in 10.0 mi West 15.0 mph 24.2 mph N/A   Overcast
11:55 PM 37.4 °F 28.2 °F 23.0 °F 56% 30.02 in 10.0 mi WNW 16.1 mph 25.3 mph N/A   Overcast